KPSM/PSM METAR and TAF weather

Enter ICAO airport designator
Station Type Date Time Source
KPSM METAR 2020/07/10 13:56 UTC NOAA

KPSM 101356Z 11005KT 7SM FEW014 FEW200 BKN250 26/21 A3003 RMK AO2A SLP171 T02560210


Station Type Date Time Source
KPSM Decoded METAR 2020/07/10 13:56 UTC NOAA

Pease Air Force Base / Portsmouth, NH, United States (KPSM) 43-05N 070-49W
Jul 10, 2020 - 09:56 AM EDT / 2020.07.10 1356 UTC
Wind: from the ESE (110 degrees) at 6 MPH (5 KT):0
Visibility: 7 mile(s):0
Sky conditions: mostly cloudy
Temperature: 78.1 F (25.6 C)
Dew Point: 69.8 F (21.0 C)
Relative Humidity: 75%
Pressure (altimeter): 30.03 in. Hg (1016 hPa)
ob: KPSM 101356Z 11005KT 7SM FEW014 FEW200 BKN250 26/21 A3003 RMK AO2A SLP171 T02560210
cycle: 14

Station Type Date Time Source
KPSM TAF 2020/07/10 12:30 UTC NOAA

TAF KPSM 101128Z 1012/1112 VRB03KT 5SM BR SCT004 BKN250
FM101300 13006KT P6SM BKN250
FM102000 10008KT 5SM BR BKN012
FM110200 09010KT 3SM -SHRA BR OVC003

Example: see airport list